Time;durP1;ratioP1;P1;durP2;ratioP2;P2;SDS_P1;SDS_P2;PMS_P1;PMS_P2;Temp;Humidity;BMP_temperature;BMP_pressure;BME280_temperature;BME280_humidity;BME280_pressure;Samples;Min_cycle;Max_cycle;Signal;HPM_P1;HPM_P2
2024/03/22 00:01:48;;;;;;;6.97;6.30;;;;;;;;;;6051854;23;20641;-81
2024/03/22 00:04:15;;;;;;;7.33;6.70;;;;;;;;;;6099598;23;20235;-79
2024/03/22 00:06:41;;;;;;;7.13;6.43;;;;;;;;;;6075337;23;20202;-80
2024/03/22 00:09:08;;;;;;;6.67;6.10;;;;;;;;;;6099114;23;20172;-80
2024/03/22 00:11:35;;;;;;;7.77;7.07;;;;;;;;;;6099301;23;20159;-80
2024/03/22 00:14:02;;;;;;;7.53;6.77;;;;;;;;;;6099384;23;20191;-81
2024/03/22 00:16:28;;;;;;;7.33;6.63;;;;;;;;;;6051551;23;20246;-79
2024/03/22 00:18:54;;;;;;;7.47;6.77;;;;;;;;;;6099106;23;20196;-80
2024/03/22 00:21:24;;;;;;;7.30;6.67;;;;;;;;;;6098920;23;20167;-81
2024/03/22 00:23:50;;;;;;;7.60;6.87;;;;;;;;;;6099063;23;20164;-80
2024/03/22 00:26:16;;;;;;;7.87;7.17;;;;;;;;;;6098997;23;20191;-81
2024/03/22 00:28:42;;;;;;;8.23;7.53;;;;;;;;;;6074973;23;20227;-80
2024/03/22 00:31:08;;;;;;;7.87;7.13;;;;;;;;;;6074865;23;20666;-82
2024/03/22 00:33:34;;;;;;;7.83;7.13;;;;;;;;;;6098603;23;20277;-80
2024/03/22 00:36:00;;;;;;;7.60;6.90;;;;;;;;;;6099051;23;20178;-81
2024/03/22 00:38:26;;;;;;;8.07;7.37;;;;;;;;;;6074262;23;20740;-80
2024/03/22 00:40:52;;;;;;;8.30;7.53;;;;;;;;;;6099207;23;20178;-79
2024/03/22 00:43:22;;;;;;;7.87;7.00;;;;;;;;;;6098534;23;20199;-81
2024/03/22 00:45:48;;;;;;;8.03;7.33;;;;;;;;;;6074472;23;20229;-78
2024/03/22 00:48:14;;;;;;;8.10;7.40;;;;;;;;;;6098504;23;20168;-80
2024/03/22 00:50:40;;;;;;;7.90;7.10;;;;;;;;;;6074489;23;20165;-81
2024/03/22 00:53:07;;;;;;;8.67;7.87;;;;;;;;;;6098490;23;20179;-80
2024/03/22 00:55:34;;;;;;;8.60;7.80;;;;;;;;;;6074330;23;20168;-82
2024/03/22 00:58:00;;;;;;;9.30;8.40;;;;;;;;;;6098462;23;20172;-81
2024/03/22 01:00:26;;;;;;;9.33;8.53;;;;;;;;;;6098296;23;20508;-80
2024/03/22 01:02:52;;;;;;;9.00;8.10;;;;;;;;;;6097946;23;20167;-80
2024/03/22 01:05:18;;;;;;;9.00;8.20;;;;;;;;;;6098418;23;20187;-80
2024/03/22 01:07:44;;;;;;;9.37;8.57;;;;;;;;;;6098418;23;20199;-81
2024/03/22 01:10:10;;;;;;;9.50;8.60;;;;;;;;;;6098358;23;20171;-81
2024/03/22 01:12:44;;;;;;;9.23;8.40;;;;;;;;;;6098448;23;20226;-81
2024/03/22 01:15:10;;;;;;;9.67;8.77;;;;;;;;;;6075684;23;20156;-80
2024/03/22 01:17:36;;;;;;;9.50;8.50;;;;;;;;;;6098193;23;20214;-80
2024/03/22 01:20:02;;;;;;;10.17;9.27;;;;;;;;;;6098152;23;20176;-80
2024/03/22 01:22:28;;;;;;;9.87;9.00;;;;;;;;;;6098335;23;20171;-81
2024/03/22 01:24:54;;;;;;;9.80;8.90;;;;;;;;;;6073953;23;20236;-81
2024/03/22 01:27:20;;;;;;;9.80;8.90;;;;;;;;;;6074349;23;20215;-81
2024/03/22 01:29:47;;;;;;;9.20;8.37;;;;;;;;;;6097952;23;20386;-80
2024/03/22 01:32:14;;;;;;;9.77;8.83;;;;;;;;;;6097778;23;20199;-80
2024/03/22 01:34:40;;;;;;;9.30;8.40;;;;;;;;;;6097097;23;20642;-79
2024/03/22 01:37:06;;;;;;;9.50;8.70;;;;;;;;;;6073865;23;20195;-79
2024/03/22 01:39:33;;;;;;;10.00;9.10;;;;;;;;;;6097962;23;20238;-80
2024/03/22 01:42:00;;;;;;;9.30;8.50;;;;;;;;;;6098124;23;20164;-81
2024/03/22 01:44:31;;;;;;;9.67;8.77;;;;;;;;;;6097788;23;20159;-79
2024/03/22 01:46:59;;;;;;;10.17;9.27;;;;;;;;;;6097847;23;20215;-81
2024/03/22 01:49:28;;;;;;;9.57;8.70;;;;;;;;;;6097374;23;20165;-78
2024/03/22 01:51:55;;;;;;;10.00;9.00;;;;;;;;;;6098005;23;20164;-80
2024/03/22 01:54:21;;;;;;;9.83;8.93;;;;;;;;;;6097438;23;20690;-82
2024/03/22 01:56:47;;;;;;;10.53;9.53;;;;;;;;;;6073811;23;20230;-80
2024/03/22 01:59:13;;;;;;;10.07;9.17;;;;;;;;;;6073845;23;20172;-80
2024/03/22 02:01:39;;;;;;;10.43;9.27;;;;;;;;;;6098250;23;20193;-81
2024/03/22 02:04:06;;;;;;;10.17;9.27;;;;;;;;;;6071990;23;20160;-80
2024/03/22 02:06:32;;;;;;;10.43;9.53;;;;;;;;;;6097954;23;20192;-81
2024/03/22 02:08:58;;;;;;;10.53;9.53;;;;;;;;;;6097462;23;20168;-81
2024/03/22 02:11:25;;;;;;;11.43;10.30;;;;;;;;;;6098064;23;20182;-80
2024/03/22 02:13:51;;;;;;;10.73;9.73;;;;;;;;;;6097437;23;20167;-80
2024/03/22 02:16:17;;;;;;;10.90;9.80;;;;;;;;;;6074276;23;20172;-80
2024/03/22 02:18:46;;;;;;;11.07;10.07;;;;;;;;;;6097535;23;20171;-85
2024/03/22 02:21:12;;;;;;;10.70;9.60;;;;;;;;;;6073756;23;20314;-80
2024/03/22 02:23:41;;;;;;;10.93;9.93;;;;;;;;;;6074887;23;20216;-80
2024/03/22 02:26:07;;;;;;;11.03;9.93;;;;;;;;;;6097570;23;20184;-80
2024/03/22 02:28:33;;;;;;;12.00;10.70;;;;;;;;;;6073432;23;20215;-81
2024/03/22 02:31:03;;;;;;;11.27;10.17;;;;;;;;;;6073858;23;21016;-80
2024/03/22 02:33:30;;;;;;;11.73;10.50;;;;;;;;;;6097334;23;20168;-81
2024/03/22 02:35:56;;;;;;;10.90;9.90;;;;;;;;;;6097317;23;20164;-82
2024/03/22 02:38:22;;;;;;;12.13;11.03;;;;;;;;;;6073582;23;20189;-80
2024/03/22 02:40:52;;;;;;;12.43;11.17;;;;;;;;;;6097584;23;20267;-81
2024/03/22 02:43:18;;;;;;;11.90;10.70;;;;;;;;;;6097394;23;20250;-78
2024/03/22 02:45:46;;;;;;;11.93;10.83;;;;;;;;;;6097195;23;20188;-83
2024/03/22 02:48:12;;;;;;;12.53;11.23;;;;;;;;;;6097098;23;20637;-81
2024/03/22 02:50:38;;;;;;;11.90;10.80;;;;;;;;;;6073480;23;20198;-77
2024/03/22 02:53:04;;;;;;;12.43;11.23;;;;;;;;;;6073180;23;20164;-81
2024/03/22 02:55:35;;;;;;;13.47;12.27;;;;;;;;;;6097599;23;20165;-80
2024/03/22 02:58:02;;;;;;;13.80;12.37;;;;;;;;;;6097705;23;20144;-79
2024/03/22 03:00:28;;;;;;;12.87;11.67;;;;;;;;;;6096791;23;20165;-82
2024/03/22 03:02:54;;;;;;;13.17;11.87;;;;;;;;;;6097452;23;20169;-80
2024/03/22 03:05:20;;;;;;;13.13;11.90;;;;;;;;;;6073314;23;20199;-79
2024/03/22 03:07:47;;;;;;;13.33;12.10;;;;;;;;;;6097756;23;20171;-84
2024/03/22 03:10:13;;;;;;;13.47;12.17;;;;;;;;;;6073719;23;20192;-79
2024/03/22 03:12:40;;;;;;;14.00;12.60;;;;;;;;;;6073803;23;20189;-79
2024/03/22 03:15:08;;;;;;;12.77;11.47;;;;;;;;;;6097306;23;20243;-83
2024/03/22 03:17:34;;;;;;;13.40;12.10;;;;;;;;;;6097657;23;20339;-80
2024/03/22 03:20:01;;;;;;;13.47;12.17;;;;;;;;;;6097458;23;20603;-79
2024/03/22 03:22:28;;;;;;;13.23;11.83;;;;;;;;;;6097508;23;20164;-79
2024/03/22 03:24:56;;;;;;;12.43;11.13;;;;;;;;;;6097319;23;20195;-80
2024/03/22 03:27:22;;;;;;;12.80;11.57;;;;;;;;;;6097500;23;20176;-79
2024/03/22 03:29:49;;;;;;;12.10;10.97;;;;;;;;;;6097454;23;20243;-80
2024/03/22 03:32:16;;;;;;;12.97;11.77;;;;;;;;;;6097155;23;20206;-79
2024/03/22 03:34:45;;;;;;;12.00;10.87;;;;;;;;;;6097962;23;20149;-79
2024/03/22 03:37:11;;;;;;;12.53;11.33;;;;;;;;;;6097650;23;20190;-80
2024/03/22 03:39:38;;;;;;;11.43;10.33;;;;;;;;;;6096674;23;20649;-83
2024/03/22 03:42:03;;;;;;;11.10;10.00;;;;;;;;;;6097125;23;20215;-80
2024/03/22 03:44:30;;;;;;;11.27;10.07;;;;;;;;;;6097155;23;20167;-81
2024/03/22 03:46:55;;;;;;;11.17;10.17;;;;;;;;;;6097058;23;20643;-79
2024/03/22 03:49:21;;;;;;;11.23;10.13;;;;;;;;;;6096806;23;20682;-83
2024/03/22 03:51:48;;;;;;;10.73;9.73;;;;;;;;;;6097320;23;20171;-80
2024/03/22 03:54:14;;;;;;;11.30;10.20;;;;;;;;;;6072897;23;20173;-80
2024/03/22 03:56:40;;;;;;;11.23;10.13;;;;;;;;;;6097084;23;20223;-80
2024/03/22 03:59:07;;;;;;;11.63;10.43;;;;;;;;;;6097039;23;20167;-81
2024/03/22 04:01:33;;;;;;;10.97;9.87;;;;;;;;;;6049120;23;20169;-79
2024/03/22 04:03:59;;;;;;;11.10;10.00;;;;;;;;;;6096721;23;20188;-81
2024/03/22 04:06:25;;;;;;;11.40;10.30;;;;;;;;;;6097425;23;20192;-79
2024/03/22 04:08:51;;;;;;;12.00;10.80;;;;;;;;;;6073107;23;20175;-81
2024/03/22 04:11:18;;;;;;;11.60;10.50;;;;;;;;;;6097229;23;20254;-78
2024/03/22 04:13:44;;;;;;;11.37;10.27;;;;;;;;;;6098583;23;20172;-80
2024/03/22 04:16:10;;;;;;;11.20;10.20;;;;;;;;;;6074776;23;20222;-79
2024/03/22 04:18:37;;;;;;;11.80;10.70;;;;;;;;;;6098752;23;20168;-79
2024/03/22 04:21:03;;;;;;;11.67;10.47;;;;;;;;;;6098723;23;20175;-79
2024/03/22 04:23:29;;;;;;;11.37;10.33;;;;;;;;;;6098748;23;20178;-79
2024/03/22 04:25:56;;;;;;;11.27;10.17;;;;;;;;;;6074331;23;20222;-80
2024/03/22 04:28:22;;;;;;;11.00;9.90;;;;;;;;;;6098518;23;20168;-80
2024/03/22 04:30:58;;;;;;;10.57;9.57;;;;;;;;;;6098316;23;20178;-79
2024/03/22 04:33:27;;;;;;;10.83;9.83;;;;;;;;;;6075180;23;20168;-79
2024/03/22 04:35:53;;;;;;;11.40;10.30;;;;;;;;;;6098128;23;20234;-81
2024/03/22 04:38:19;;;;;;;10.57;9.57;;;;;;;;;;6098474;23;20231;-80
2024/03/22 04:40:46;;;;;;;11.20;10.10;;;;;;;;;;6073877;23;20263;-81
2024/03/22 04:43:12;;;;;;;10.70;9.70;;;;;;;;;;6098252;23;20211;-79
2024/03/22 04:45:38;;;;;;;11.30;10.10;;;;;;;;;;6097894;23;20192;-80
2024/03/22 04:48:05;;;;;;;10.30;9.30;;;;;;;;;;6098643;23;20171;-80
2024/03/22 04:50:31;;;;;;;10.63;9.63;;;;;;;;;;6098118;23;20172;-80
2024/03/22 04:52:57;;;;;;;11.23;10.13;;;;;;;;;;6098146;23;20641;-79
2024/03/22 04:55:23;;;;;;;10.60;9.60;;;;;;;;;;6098363;23;20634;-79
2024/03/22 04:57:50;;;;;;;10.60;9.70;;;;;;;;;;6098286;23;20169;-80
2024/03/22 05:00:16;;;;;;;10.57;9.57;;;;;;;;;;6098698;23;20187;-80
2024/03/22 05:02:42;;;;;;;10.70;9.63;;;;;;;;;;6098572;23;20171;-82
2024/03/22 05:05:08;;;;;;;10.67;9.67;;;;;;;;;;6098472;23;20172;-79
2024/03/22 05:07:34;;;;;;;10.70;9.60;;;;;;;;;;6098450;23;20273;-80
2024/03/22 05:10:00;;;;;;;10.67;9.70;;;;;;;;;;6098227;23;20170;-81
2024/03/22 05:12:26;;;;;;;10.93;9.70;;;;;;;;;;6074629;23;20559;-80
2024/03/22 05:14:52;;;;;;;9.97;9.03;;;;;;;;;;6098207;23;20165;-80
2024/03/22 05:17:18;;;;;;;10.33;9.33;;;;;;;;;;6098618;23;20171;-80
2024/03/22 05:19:44;;;;;;;11.40;10.30;;;;;;;;;;6098080;23;20167;-83
2024/03/22 05:22:10;;;;;;;10.30;9.33;;;;;;;;;;6098280;23;20164;-80
2024/03/22 05:24:39;;;;;;;10.23;9.33;;;;;;;;;;6097895;23;20187;-80
2024/03/22 05:27:05;;;;;;;10.67;9.57;;;;;;;;;;6097915;23;20191;-79
2024/03/22 05:29:31;;;;;;;9.90;8.90;;;;;;;;;;6097907;23;20191;-82
2024/03/22 05:31:58;;;;;;;10.33;9.37;;;;;;;;;;6097703;23;20192;-82
2024/03/22 05:34:24;;;;;;;10.63;9.30;;;;;;;;;;6097701;23;20175;-80
2024/03/22 05:36:54;;;;;;;10.47;9.40;;;;;;;;;;6097722;23;20191;-80
2024/03/22 05:39:20;;;;;;;11.23;10.23;;;;;;;;;;6097835;23;20169;-81
2024/03/22 05:41:46;;;;;;;10.90;9.90;;;;;;;;;;6098350;23;20169;-80
2024/03/22 05:44:12;;;;;;;11.23;10.13;;;;;;;;;;6097946;23;20642;-81
2024/03/22 05:46:38;;;;;;;10.60;9.50;;;;;;;;;;6097756;23;20198;-80
2024/03/22 05:49:04;;;;;;;11.13;10.13;;;;;;;;;;6097922;23;20176;-79
2024/03/22 05:51:30;;;;;;;11.37;10.27;;;;;;;;;;6098018;23;20620;-79
2024/03/22 05:53:56;;;;;;;11.87;10.70;;;;;;;;;;6097948;23;20193;-80
2024/03/22 05:56:22;;;;;;;13.00;10.77;;;;;;;;;;6097773;23;20166;-80
2024/03/22 05:58:48;;;;;;;12.43;11.23;;;;;;;;;;6098130;23;20164;-80
2024/03/22 06:01:14;;;;;;;12.20;11.00;;;;;;;;;;6098017;23;20187;-80
2024/03/22 06:03:40;;;;;;;12.33;10.97;;;;;;;;;;6098092;23;20169;-80
2024/03/22 06:06:06;;;;;;;12.60;11.27;;;;;;;;;;6097638;23;20184;-81
2024/03/22 06:08:35;;;;;;;12.13;10.93;;;;;;;;;;6097742;23;20251;-80
2024/03/22 06:11:00;;;;;;;12.37;11.10;;;;;;;;;;6097959;23;20169;-80
2024/03/22 06:13:27;;;;;;;12.60;11.27;;;;;;;;;;6097798;23;20196;-82
2024/03/22 06:15:53;;;;;;;13.00;11.73;;;;;;;;;;6097819;23;20176;-81
2024/03/22 06:18:19;;;;;;;14.07;12.60;;;;;;;;;;6098015;23;20201;-79
2024/03/22 06:20:45;;;;;;;12.07;10.87;;;;;;;;;;6097768;23;20194;-80
2024/03/22 06:23:12;;;;;;;13.20;12.00;;;;;;;;;;6097357;23;20742;-80
2024/03/22 06:25:40;;;;;;;13.23;11.93;;;;;;;;;;6097220;23;20339;-81
2024/03/22 06:28:06;;;;;;;15.10;13.60;;;;;;;;;;6097345;23;20687;-82
2024/03/22 06:30:35;;;;;;;19.33;16.43;;;;;;;;;;6097303;23;20184;-81
2024/03/22 06:33:02;;;;;;;14.10;12.70;;;;;;;;;;6073539;23;20197;-80
2024/03/22 06:35:28;;;;;;;15.10;13.63;;;;;;;;;;6071323;23;20169;-79
2024/03/22 06:37:54;;;;;;;13.87;12.47;;;;;;;;;;6096359;23;20216;-79
2024/03/22 06:40:20;;;;;;;14.93;13.53;;;;;;;;;;6072532;23;20631;-81
2024/03/22 06:42:46;;;;;;;14.87;13.37;;;;;;;;;;6096374;23;20173;-81
2024/03/22 06:45:12;;;;;;;16.60;14.90;;;;;;;;;;6096509;23;20176;-79
2024/03/22 06:47:38;;;;;;;15.47;13.90;;;;;;;;;;6097670;23;20243;-80
2024/03/22 06:50:05;;;;;;;15.30;13.70;;;;;;;;;;6097258;23;20180;-82
2024/03/22 06:52:31;;;;;;;15.00;13.60;;;;;;;;;;6095356;23;20177;-79
2024/03/22 06:54:57;;;;;;;15.03;13.53;;;;;;;;;;6096831;23;20699;-80
2024/03/22 06:57:23;;;;;;;15.50;13.90;;;;;;;;;;6096452;23;20175;-79
2024/03/22 06:59:49;;;;;;;15.47;13.97;;;;;;;;;;6095615;23;20181;-80
2024/03/22 07:02:15;;;;;;;15.53;13.80;;;;;;;;;;6070608;23;20662;-80
2024/03/22 07:04:41;;;;;;;16.33;13.53;;;;;;;;;;6096341;23;20201;-80
2024/03/22 07:07:07;;;;;;;15.83;13.23;;;;;;;;;;6096767;23;20181;-80
2024/03/22 07:09:33;;;;;;;14.50;13.00;;;;;;;;;;6096656;23;20652;-80
2024/03/22 07:11:59;;;;;;;15.17;13.20;;;;;;;;;;6094685;23;20174;-80
2024/03/22 07:14:25;;;;;;;15.20;13.60;;;;;;;;;;6093053;23;20553;-80
2024/03/22 07:16:53;;;;;;;14.40;13.00;;;;;;;;;;6095174;23;20759;-80
2024/03/22 07:19:20;;;;;;;15.23;13.63;;;;;;;;;;6096492;23;20250;-79
2024/03/22 07:21:46;;;;;;;14.40;12.63;;;;;;;;;;6096891;23;20202;-79
2024/03/22 07:24:12;;;;;;;14.27;12.80;;;;;;;;;;6096803;23;20175;-79
2024/03/22 07:26:38;;;;;;;14.77;13.23;;;;;;;;;;6096606;23;20182;-80
2024/03/22 07:29:04;;;;;;;14.23;12.83;;;;;;;;;;6072633;23;20170;-80
2024/03/22 07:31:30;;;;;;;14.30;12.87;;;;;;;;;;6091838;23;20742;-80
2024/03/22 07:33:56;;;;;;;15.37;12.57;;;;;;;;;;6067794;23;20173;-81
2024/03/22 07:36:22;;;;;;;13.73;12.33;;;;;;;;;;6044121;23;20218;-80
2024/03/22 07:38:51;;;;;;;14.33;12.83;;;;;;;;;;6067889;23;20192;-80
2024/03/22 07:41:17;;;;;;;15.20;13.23;;;;;;;;;;6068142;23;20168;-80
2024/03/22 07:43:43;;;;;;;16.60;15.00;;;;;;;;;;6043782;23;20165;-81
2024/03/22 07:46:10;;;;;;;14.47;13.00;;;;;;;;;;6067910;23;20199;-82
2024/03/22 07:48:36;;;;;;;13.33;11.93;;;;;;;;;;6069346;23;20216;-80
2024/03/22 07:51:03;;;;;;;13.80;12.17;;;;;;;;;;6069538;23;20176;-80
2024/03/22 07:53:29;;;;;;;17.90;15.40;;;;;;;;;;6069909;23;20195;-80
2024/03/22 07:55:55;;;;;;;13.20;11.80;;;;;;;;;;6069535;23;20235;-81
2024/03/22 07:58:20;;;;;;;13.53;11.60;;;;;;;;;;6069621;23;20168;-80
2024/03/22 08:00:47;;;;;;;13.00;11.33;;;;;;;;;;6069762;23;20165;-80
2024/03/22 08:03:16;;;;;;;11.80;10.60;;;;;;;;;;6069014;23;20169;-80
2024/03/22 08:05:42;;;;;;;12.63;10.83;;;;;;;;;;6069197;23;20575;-81
2024/03/22 08:08:08;;;;;;;11.47;10.27;;;;;;;;;;6069948;23;20175;-80
2024/03/22 08:10:34;;;;;;;11.73;9.87;;;;;;;;;;6069425;23;20567;-81
2024/03/22 08:13:00;;;;;;;12.33;10.77;;;;;;;;;;6046002;23;20189;-82
2024/03/22 08:15:27;;;;;;;12.20;9.33;;;;;;;;;;6045720;23;20172;-80
2024/03/22 08:17:53;;;;;;;10.53;9.40;;;;;;;;;;6067557;23;20172;-84
2024/03/22 08:20:19;;;;;;;11.60;10.10;;;;;;;;;;6069173;23;20161;-81
2024/03/22 08:22:45;;;;;;;10.47;9.27;;;;;;;;;;6069752;23;20190;-80
2024/03/22 08:25:12;;;;;;;11.20;9.97;;;;;;;;;;6069933;23;20209;-81
2024/03/22 08:27:38;;;;;;;11.13;9.10;;;;;;;;;;6069968;23;20177;-81
2024/03/22 08:30:04;;;;;;;9.80;8.80;;;;;;;;;;6070346;23;20169;-80
2024/03/22 08:32:30;;;;;;;11.30;9.60;;;;;;;;;;6085857;23;20192;-80
2024/03/22 08:34:59;;;;;;;10.60;9.00;;;;;;;;;;6069971;23;20169;-80
2024/03/22 08:37:26;;;;;;;11.03;9.27;;;;;;;;;;6094555;23;20185;-80
2024/03/22 08:39:52;;;;;;;11.60;9.33;;;;;;;;;;6069925;23;20180;-80
2024/03/22 08:42:18;;;;;;;9.50;8.60;;;;;;;;;;6069856;23;20172;-80
2024/03/22 08:44:44;;;;;;;9.60;8.47;;;;;;;;;;6093540;23;20179;-81
2024/03/22 08:47:13;;;;;;;10.77;9.13;;;;;;;;;;6091279;23;20195;-82
2024/03/22 08:49:41;;;;;;;8.63;7.80;;;;;;;;;;6093489;23;20161;-80
2024/03/22 08:52:07;;;;;;;9.53;8.53;;;;;;;;;;6093403;23;20168;-82
2024/03/22 08:54:34;;;;;;;10.47;9.30;;;;;;;;;;6093458;23;20168;-80
2024/03/22 08:57:00;;;;;;;10.47;8.37;;;;;;;;;;6069562;23;20184;-80
2024/03/22 08:59:26;;;;;;;9.90;8.67;;;;;;;;;;6069630;23;20184;-81
2024/03/22 09:01:54;;;;;;;9.73;8.03;;;;;;;;;;6094045;23;20188;-81
2024/03/22 09:04:20;;;;;;;9.63;8.00;;;;;;;;;;6094215;23;20169;-80
2024/03/22 09:06:46;;;;;;;9.57;7.97;;;;;;;;;;6118356;23;20296;-79
2024/03/22 09:09:12;;;;;;;8.60;7.40;;;;;;;;;;6094693;23;20179;-79
2024/03/22 09:11:38;;;;;;;8.77;7.53;;;;;;;;;;6070409;23;20192;-81
2024/03/22 09:14:04;;;;;;;7.97;7.17;;;;;;;;;;6070116;23;20172;-81
2024/03/22 09:16:31;;;;;;;8.13;7.33;;;;;;;;;;6093543;23;20172;-81
2024/03/22 09:18:59;;;;;;;8.33;7.53;;;;;;;;;;6093909;23;20185;-80
2024/03/22 09:21:31;;;;;;;8.43;6.97;;;;;;;;;;6093676;23;20169;-80
2024/03/22 09:23:57;;;;;;;8.17;7.37;;;;;;;;;;6093696;23;20149;-80
2024/03/22 09:26:23;;;;;;;7.63;6.83;;;;;;;;;;6093601;23;20651;-80
2024/03/22 09:28:50;;;;;;;7.57;6.77;;;;;;;;;;6069258;23;20247;-80
2024/03/22 09:31:16;;;;;;;7.70;6.40;;;;;;;;;;6093032;23;20268;-80
2024/03/22 09:33:42;;;;;;;7.43;6.63;;;;;;;;;;6045271;23;20236;-80
2024/03/22 09:36:09;;;;;;;8.37;6.47;;;;;;;;;;6093221;23;20174;-81
2024/03/22 09:38:35;;;;;;;7.83;6.73;;;;;;;;;;6093056;23;20199;-81
2024/03/22 09:41:01;;;;;;;7.97;6.50;;;;;;;;;;6092751;23;20751;-80
2024/03/22 09:43:27;;;;;;;6.77;6.17;;;;;;;;;;6093185;23;20173;-80
2024/03/22 09:45:54;;;;;;;6.97;6.33;;;;;;;;;;6068973;23;20181;-80
2024/03/22 09:48:26;;;;;;;6.87;6.20;;;;;;;;;;6070410;23;20274;-80
2024/03/22 09:50:52;;;;;;;6.57;5.70;;;;;;;;;;6092431;23;20218;-81
2024/03/22 09:53:19;;;;;;;7.00;6.30;;;;;;;;;;6068698;23;20805;-81
2024/03/22 09:55:46;;;;;;;7.17;6.43;;;;;;;;;;6092608;23;20193;-80
2024/03/22 09:58:12;;;;;;;6.40;5.70;;;;;;;;;;6092671;23;20247;-82
2024/03/22 10:00:43;;;;;;;7.73;5.90;;;;;;;;;;6069030;23;20186;-79
2024/03/22 10:03:12;;;;;;;5.87;5.27;;;;;;;;;;6044714;23;20209;-82
2024/03/22 10:05:38;;;;;;;6.77;6.10;;;;;;;;;;6092096;23;20541;-80
2024/03/22 10:08:05;;;;;;;6.27;5.67;;;;;;;;;;6116928;23;20177;-80
2024/03/22 10:10:31;;;;;;;6.83;5.83;;;;;;;;;;6068323;23;20200;-82
2024/03/22 10:13:00;;;;;;;6.60;5.33;;;;;;;;;;6092416;23;20199;-80
2024/03/22 10:15:27;;;;;;;6.00;5.23;;;;;;;;;;6092070;23;20180;-82
2024/03/22 10:17:56;;;;;;;7.63;5.73;;;;;;;;;;6044684;23;20624;-80
2024/03/22 10:20:22;;;;;;;6.57;5.00;;;;;;;;;;6091940;23;20269;-79
2024/03/22 10:22:55;;;;;;;6.37;5.77;;;;;;;;;;6067958;23;20175;-81
2024/03/22 10:25:23;;;;;;;5.60;5.10;;;;;;;;;;6092035;23;20180;-80
2024/03/22 10:27:49;;;;;;;6.10;5.50;;;;;;;;;;6068380;23;20171;-80
2024/03/22 10:30:19;;;;;;;5.20;4.70;;;;;;;;;;6068113;23;20201;-81
2024/03/22 10:32:46;;;;;;;5.73;5.03;;;;;;;;;;6092012;23;20230;-80
2024/03/22 10:35:14;;;;;;;6.40;5.33;;;;;;;;;;6068076;23;20174;-81
2024/03/22 10:37:40;;;;;;;5.90;5.30;;;;;;;;;;6092125;23;20195;-81
2024/03/22 10:40:09;;;;;;;5.47;4.77;;;;;;;;;;6067541;23;20167;-79
2024/03/22 10:42:36;;;;;;;5.60;5.03;;;;;;;;;;6089513;23;20174;-80
2024/03/22 10:45:06;;;;;;;5.03;4.53;;;;;;;;;;6066957;23;20178;-80
2024/03/22 10:47:33;;;;;;;5.10;4.67;;;;;;;;;;6067746;23;20194;-81
2024/03/22 10:50:04;;;;;;;5.27;4.70;;;;;;;;;;6068291;23;20171;-80
2024/03/22 10:52:32;;;;;;;5.40;4.70;;;;;;;;;;6068476;23;20207;-80
2024/03/22 10:54:58;;;;;;;4.97;3.77;;;;;;;;;;6092034;23;20188;-81
2024/03/22 10:57:27;;;;;;;4.87;3.87;;;;;;;;;;6068944;23;20601;-80
2024/03/22 10:59:56;;;;;;;3.87;3.57;;;;;;;;;;6092108;23;20193;-80
2024/03/22 11:02:25;;;;;;;3.90;3.50;;;;;;;;;;6068358;23;20174;-80
2024/03/22 11:04:57;;;;;;;3.93;3.60;;;;;;;;;;6092065;23;20179;-81
2024/03/22 11:07:28;;;;;;;4.00;3.60;;;;;;;;;;6090165;23;20270;-79
2024/03/22 11:09:55;;;;;;;4.73;3.83;;;;;;;;;;6089243;23;20152;-80
2024/03/22 11:12:24;;;;;;;3.93;3.63;;;;;;;;;;6090218;23;20172;-81
2024/03/22 11:14:51;;;;;;;4.73;3.70;;;;;;;;;;6091955;23;20181;-81
2024/03/22 11:17:18;;;;;;;3.57;3.27;;;;;;;;;;6092294;23;20615;-80
2024/03/22 11:19:44;;;;;;;4.50;3.70;;;;;;;;;;6092039;23;20172;-81
2024/03/22 11:22:11;;;;;;;3.90;3.47;;;;;;;;;;6094010;23;20168;-81
2024/03/22 11:24:37;;;;;;;4.10;3.60;;;;;;;;;;6094163;23;20167;-80
2024/03/22 11:27:10;;;;;;;5.03;3.50;;;;;;;;;;6117205;23;20408;-81
2024/03/22 11:29:41;;;;;;;4.00;3.60;;;;;;;;;;6094497;23;20212;-81
2024/03/22 11:32:08;;;;;;;3.70;3.30;;;;;;;;;;6118009;23;20200;-80
2024/03/22 11:34:37;;;;;;;5.03;3.63;;;;;;;;;;6094112;23;20179;-82
2024/03/22 11:37:06;;;;;;;4.73;4.20;;;;;;;;;;6094082;23;20184;-80
2024/03/22 11:39:34;;;;;;;4.17;3.77;;;;;;;;;;6093762;23;20221;-81
2024/03/22 11:42:05;;;;;;;4.53;3.80;;;;;;;;;;6118329;23;20253;-81
2024/03/22 11:44:34;;;;;;;4.00;3.60;;;;;;;;;;6046300;23;20210;-80
2024/03/22 11:47:00;;;;;;;3.50;2.97;;;;;;;;;;6117743;23;20270;-80
2024/03/22 11:49:26;;;;;;;3.70;3.40;;;;;;;;;;6093696;23;20171;-81
2024/03/22 11:51:52;;;;;;;3.37;3.07;;;;;;;;;;6093587;23;20651;-80
2024/03/22 11:54:21;;;;;;;4.33;3.30;;;;;;;;;;6093835;23;20238;-81
2024/03/22 11:56:47;;;;;;;3.67;3.07;;;;;;;;;;6093666;23;20168;-80
2024/03/22 11:59:13;;;;;;;6.47;3.43;;;;;;;;;;6067955;23;20178;-81
2024/03/22 12:01:40;;;;;;;3.10;2.80;;;;;;;;;;6093311;23;20764;-81
2024/03/22 12:04:07;;;;;;;2.53;2.33;;;;;;;;;;6069529;23;20270;-79
2024/03/22 12:06:34;;;;;;;3.03;2.70;;;;;;;;;;6093403;23;20177;-81
2024/03/22 12:09:00;;;;;;;3.57;3.07;;;;;;;;;;6093526;23;20272;-80
2024/03/22 12:11:26;;;;;;;4.97;3.03;;;;;;;;;;6093639;23;20255;-80
2024/03/22 12:13:52;;;;;;;3.30;3.00;;;;;;;;;;6093521;23;20172;-81
2024/03/22 12:16:18;;;;;;;3.17;2.87;;;;;;;;;;6069935;23;20197;-80
2024/03/22 12:18:45;;;;;;;3.27;2.97;;;;;;;;;;6093602;23;20173;-80
2024/03/22 12:21:11;;;;;;;4.00;3.20;;;;;;;;;;6093172;23;20177;-81
2024/03/22 12:23:37;;;;;;;2.77;2.53;;;;;;;;;;6093517;23;20175;-81
2024/03/22 12:26:03;;;;;;;4.33;3.20;;;;;;;;;;6069194;23;20190;-80
2024/03/22 12:28:30;;;;;;;5.80;3.00;;;;;;;;;;6069307;23;20675;-81
2024/03/22 12:30:59;;;;;;;3.70;3.07;;;;;;;;;;6117287;23;20198;-81
2024/03/22 12:33:31;;;;;;;4.03;3.23;;;;;;;;;;6097992;23;20173;-80
2024/03/22 12:35:57;;;;;;;5.43;2.90;;;;;;;;;;6073926;23;20325;-80
2024/03/22 12:38:23;;;;;;;3.40;2.83;;;;;;;;;;6098094;23;20269;-80
2024/03/22 12:40:50;;;;;;;2.90;2.70;;;;;;;;;;6098050;23;20176;-81
2024/03/22 12:43:15;;;;;;;3.83;3.33;;;;;;;;;;6098059;23;20608;-81
2024/03/22 12:45:41;;;;;;;5.97;3.13;;;;;;;;;;6097986;23;20173;-79
2024/03/22 12:48:08;;;;;;;3.70;2.97;;;;;;;;;;6098237;23;20171;-81
2024/03/22 12:50:35;;;;;;;3.57;3.00;;;;;;;;;;6098123;23;20168;-82
2024/03/22 12:53:01;;;;;;;4.53;2.70;;;;;;;;;;6098003;23;20266;-80
2024/03/22 12:55:28;;;;;;;3.30;2.63;;;;;;;;;;6097759;23;20167;-80
2024/03/22 12:57:54;;;;;;;7.30;3.20;;;;;;;;;;6073948;23;20177;-79
2024/03/22 13:00:20;;;;;;;5.13;3.10;;;;;;;;;;6073939;23;20628;-83
2024/03/22 13:02:47;;;;;;;5.97;3.13;;;;;;;;;;6097942;23;20194;-80
2024/03/22 13:05:15;;;;;;;4.07;2.90;;;;;;;;;;6073115;23;20170;-80
2024/03/22 13:07:43;;;;;;;3.20;2.90;;;;;;;;;;6097079;23;20216;-81
2024/03/22 13:10:10;;;;;;;3.00;2.73;;;;;;;;;;6097703;23;20162;-81
2024/03/22 13:12:36;;;;;;;4.40;2.70;;;;;;;;;;6097311;23;20263;-80
2024/03/22 13:15:02;;;;;;;3.73;3.00;;;;;;;;;;6097601;23;20643;-81
2024/03/22 13:17:29;;;;;;;3.40;3.10;;;;;;;;;;6071572;23;20168;-80
2024/03/22 13:19:56;;;;;;;3.50;3.20;;;;;;;;;;6097282;23;20195;-81
2024/03/22 13:22:21;;;;;;;3.43;3.13;;;;;;;;;;6097219;23;20195;-80
2024/03/22 13:24:50;;;;;;;3.17;2.70;;;;;;;;;;6097331;23;20630;-81
2024/03/22 13:27:16;;;;;;;4.43;3.30;;;;;;;;;;6096541;23;20227;-81
2024/03/22 13:29:43;;;;;;;5.07;2.80;;;;;;;;;;6096911;23;20171;-81
2024/03/22 13:32:09;;;;;;;4.37;2.77;;;;;;;;;;6092021;23;20203;-79
2024/03/22 13:34:35;;;;;;;4.87;3.03;;;;;;;;;;6068689;23;20176;-80
2024/03/22 13:37:03;;;;;;;3.63;3.10;;;;;;;;;;6068207;23;20190;-80
2024/03/22 13:39:29;;;;;;;3.50;3.20;;;;;;;;;;6068324;23;20195;-82
2024/03/22 13:41:56;;;;;;;3.80;3.40;;;;;;;;;;6067815;23;20193;-81
2024/03/22 13:44:21;;;;;;;3.60;3.30;;;;;;;;;;6067699;23;20197;-80
2024/03/22 13:46:49;;;;;;;3.47;3.10;;;;;;;;;;6067427;23;20184;-82
2024/03/22 13:49:20;;;;;;;3.57;2.93;;;;;;;;;;6067827;23;20690;-78
2024/03/22 13:51:47;;;;;;;3.10;2.87;;;;;;;;;;6067865;23;20188;-79
2024/03/22 13:54:13;;;;;;;4.17;3.77;;;;;;;;;;6068031;23;20165;-80
2024/03/22 13:56:42;;;;;;;3.60;3.30;;;;;;;;;;6068367;23;20240;-80
2024/03/22 13:59:12;;;;;;;5.17;3.70;;;;;;;;;;6068400;23;20301;-81
2024/03/22 14:01:41;;;;;;;4.57;3.47;;;;;;;;;;6068220;23;20170;-80
2024/03/22 14:04:10;;;;;;;3.90;3.50;;;;;;;;;;6068282;23;20298;-80
2024/03/22 14:06:37;;;;;;;3.47;2.77;;;;;;;;;;6068195;23;20434;-79
2024/03/22 14:09:03;;;;;;;3.60;3.30;;;;;;;;;;6067779;23;20170;-81
2024/03/22 14:11:30;;;;;;;3.60;3.30;;;;;;;;;;6068083;23;20175;-80
2024/03/22 14:13:56;;;;;;;3.58;3.20;;;;;;;;;;6067903;23;20160;-80
2024/03/22 14:16:26;;;;;;;3.80;3.47;;;;;;;;;;6067750;23;20626;-80
2024/03/22 14:18:52;;;;;;;3.80;3.25;;;;;;;;;;6042354;23;20168;-80
2024/03/22 14:21:19;;;;;;;4.20;3.13;;;;;;;;;;6065914;23;20172;-80
2024/03/22 14:23:49;;;;;;;4.67;3.27;;;;;;;;;;6067931;23;20168;-80
2024/03/22 14:26:15;;;;;;;4.28;3.28;;;;;;;;;;6067446;23;20188;-80
2024/03/22 14:28:41;;;;;;;3.33;3.10;;;;;;;;;;6041455;23;20251;-79
2024/03/22 14:31:08;;;;;;;3.40;3.10;;;;;;;;;;6068050;23;20203;-80